Time;durP1;ratioP1;P1;durP2;ratioP2;P2;SDS_P1;SDS_P2;PMS_P1;PMS_P2;Temp;Humidity;BMP_temperature;BMP_pressure;BME280_temperature;BME280_humidity;BME280_pressure;Samples;Min_cycle;Max_cycle;Signal;HPM_P1;HPM_P2
2021/08/07 00:02:15;;;;;;;5.20;1.37;;;19.50;87.30;;;;;;5074918;28;20452;-74
2021/08/07 00:04:42;;;;;;;2.93;1.70;;;19.50;87.70;;;;;;5075054;28;20479;-74
2021/08/07 00:07:09;;;;;;;1.63;1.53;;;19.40;88.10;;;;;;5074768;28;20456;-74
2021/08/07 00:09:36;;;;;;;2.47;1.87;;;19.40;88.00;;;;;;5074780;28;20808;-74
2021/08/07 00:12:02;;;;;;;2.77;1.60;;;19.30;87.40;;;;;;5074407;28;20436;-74
2021/08/07 00:14:29;;;;;;;1.27;1.17;;;19.20;87.90;;;;;;5074617;28;20468;-74
2021/08/07 00:16:56;;;;;;;1.33;1.23;;;19.20;87.80;;;;;;5075353;28;20472;-74
2021/08/07 00:19:24;;;;;;;1.90;1.50;;;19.10;88.60;;;;;;5074638;28;20456;-74
2021/08/07 00:21:51;;;;;;;2.63;1.07;;;19.00;88.30;;;;;;5074444;28;20463;-74
2021/08/07 00:24:17;;;;;;;5.50;1.50;;;19.00;88.20;;;;;;5074605;28;20448;-74
2021/08/07 00:26:44;;;;;;;1.70;1.37;;;19.00;88.70;;;;;;5074497;28;20457;-74
2021/08/07 00:29:11;;;;;;;2.53;1.10;;;19.00;88.80;;;;;;5074549;28;20495;-74
2021/08/07 00:31:37;;;;;;;2.93;1.47;;;19.10;89.50;;;;;;5074538;28;20456;-73
2021/08/07 00:34:04;;;;;;;2.53;1.53;;;19.10;89.40;;;;;;5074400;28;20445;-73
2021/08/07 00:36:32;;;;;;;2.00;1.30;;;19.20;89.20;;;;;;5074083;28;20444;-72
2021/08/07 00:38:59;;;;;;;2.33;1.10;;;19.30;89.00;;;;;;5074252;28;20481;-73
2021/08/07 00:41:26;;;;;;;2.57;1.57;;;19.40;88.50;;;;;;5074352;28;20452;-72
2021/08/07 00:43:53;;;;;;;1.47;1.10;;;19.40;88.10;;;;;;5074338;28;20475;-72
2021/08/07 00:46:19;;;;;;;1.17;0.90;;;19.50;87.40;;;;;;5074215;28;20480;-73
2021/08/07 00:48:46;;;;;;;1.27;1.00;;;19.60;86.90;;;;;;5074213;28;20437;-73
2021/08/07 00:51:13;;;;;;;1.27;1.17;;;19.60;86.60;;;;;;5074082;28;20440;-73
2021/08/07 00:53:41;;;;;;;1.57;1.07;;;19.60;86.20;;;;;;5074131;28;20498;-72
2021/08/07 00:56:08;;;;;;;3.63;1.20;;;19.60;85.80;;;;;;5073835;28;20861;-72
2021/08/07 00:58:34;;;;;;;2.43;1.60;;;19.70;85.50;;;;;;5074037;28;20477;-73
2021/08/07 01:01:03;;;;;;;4.43;1.33;;;19.70;85.10;;;;;;5074072;28;20449;-73
2021/08/07 01:03:35;;;;;;;2.23;1.33;;;19.70;84.70;;;;;;5073461;28;20499;-73
2021/08/07 01:06:11;;;;;;;2.50;1.20;;;19.80;84.50;;;;;;5073978;28;20467;-73
2021/08/07 01:08:48;;;;;;;4.13;1.50;;;19.80;84.20;;;;;;5074167;28;20421;-73
2021/08/07 01:11:19;;;;;;;4.40;1.13;;;19.80;83.80;;;;;;5073496;28;20429;-73
2021/08/07 01:13:49;;;;;;;1.97;1.20;;;19.80;83.60;;;;;;5073478;28;20827;-73
2021/08/07 01:16:22;;;;;;;2.50;1.07;;;19.80;83.50;;;;;;5073895;28;20468;-74
2021/08/07 01:18:51;;;;;;;2.73;1.07;;;19.80;83.20;;;;;;5073441;28;20468;-74
2021/08/07 01:21:23;;;;;;;2.37;1.00;;;19.80;83.00;;;;;;5073544;28;20452;-72
2021/08/07 01:23:57;;;;;;;0.93;0.83;;;19.80;82.60;;;;;;5073584;28;20425;-74
2021/08/07 01:26:32;;;;;;;4.07;0.93;;;19.80;82.30;;;;;;5073586;28;20456;-73
2021/08/07 01:29:01;;;;;;;2.83;1.10;;;19.70;82.10;;;;;;5073492;28;20512;-72
2021/08/07 01:31:28;;;;;;;4.40;1.23;;;19.70;82.10;;;;;;5073468;28;20441;-72
2021/08/07 01:33:56;;;;;;;2.20;1.10;;;19.70;82.00;;;;;;5073491;28;20462;-73
2021/08/07 01:36:23;;;;;;;3.23;1.10;;;19.70;81.90;;;;;;5073393;28;20464;-73
2021/08/07 01:38:50;;;;;;;3.10;1.00;;;19.60;81.50;;;;;;5073322;28;20482;-73
2021/08/07 01:41:19;;;;;;;6.83;1.27;;;19.60;81.50;;;;;;5073412;28;20444;-73
2021/08/07 01:43:46;;;;;;;3.53;1.50;;;19.60;81.50;;;;;;5073375;28;20448;-73
2021/08/07 01:46:16;;;;;;;4.13;1.10;;;19.60;81.20;;;;;;5073304;28;20460;-73
2021/08/07 01:48:52;;;;;;;3.90;1.40;;;19.60;81.20;;;;;;5073068;28;20899;-73
2021/08/07 01:51:23;;;;;;;12.30;1.37;;;19.60;81.20;;;;;;5073327;28;20436;-73
2021/08/07 01:53:53;;;;;;;5.60;1.47;;;19.60;81.20;;;;;;5072978;28;20921;-72
2021/08/07 01:56:26;;;;;;;6.13;1.20;;;19.50;81.20;;;;;;5073203;28;20465;-72
2021/08/07 01:58:57;;;;;;;1.93;1.30;;;19.50;81.30;;;;;;5072848;28;20982;-74
2021/08/07 02:01:26;;;;;;;1.50;1.40;;;19.50;81.50;;;;;;5073275;28;20429;-74
2021/08/07 02:03:55;;;;;;;2.20;1.33;;;19.40;81.50;;;;;;5073173;28;20494;-73
2021/08/07 02:06:22;;;;;;;2.03;1.40;;;19.40;81.70;;;;;;5073136;28;20878;-74
2021/08/07 02:08:50;;;;;;;2.47;1.20;;;19.30;82.10;;;;;;5073159;28;20782;-74
2021/08/07 02:11:19;;;;;;;1.67;1.07;;;19.20;82.40;;;;;;5073099;28;20498;-74
2021/08/07 02:13:46;;;;;;;1.83;1.40;;;19.20;83.00;;;;;;5073062;28;20455;-74
2021/08/07 02:16:13;;;;;;;5.60;1.40;;;19.10;83.00;;;;;;5076221;28;20468;-73
2021/08/07 02:18:44;;;;;;;1.90;1.20;;;19.10;83.10;;;;;;5076776;28;20534;-73
2021/08/07 02:21:12;;;;;;;2.20;1.50;;;19.10;82.90;;;;;;5076861;28;20428;-74
2021/08/07 02:23:39;;;;;;;2.23;1.53;;;19.10;82.80;;;;;;5076457;28;20509;-74
2021/08/07 02:26:08;;;;;;;7.00;1.00;;;19.00;82.50;;;;;;5076680;28;20483;-74
2021/08/07 02:28:35;;;;;;;2.10;1.40;;;19.00;82.40;;;;;;5076684;28;20494;-74
2021/08/07 02:31:03;;;;;;;7.90;1.43;;;18.90;82.20;;;;;;5076658;28;20470;-74
2021/08/07 02:33:30;;;;;;;3.77;1.10;;;18.90;82.40;;;;;;5076605;28;20448;-74
2021/08/07 02:36:00;;;;;;;4.30;1.60;;;18.90;82.70;;;;;;5076496;28;20464;-74
2021/08/07 02:38:28;;;;;;;3.70;1.03;;;18.90;82.90;;;;;;5076636;28;20472;-73
2021/08/07 02:40:56;;;;;;;1.10;0.97;;;18.90;83.10;;;;;;5076474;28;20446;-74
2021/08/07 02:43:23;;;;;;;5.23;1.27;;;18.90;82.70;;;;;;5076408;28;20498;-74
2021/08/07 02:45:50;;;;;;;1.77;0.97;;;18.80;82.50;;;;;;5076325;28;20812;-74
2021/08/07 02:48:17;;;;;;;3.13;1.40;;;18.80;82.80;;;;;;5076351;28;20441;-74
2021/08/07 02:50:45;;;;;;;2.50;1.30;;;18.80;83.00;;;;;;5075993;28;20948;-73
2021/08/07 02:53:14;;;;;;;2.30;1.27;;;18.70;83.20;;;;;;5076264;28;20476;-73
2021/08/07 02:55:41;;;;;;;3.23;1.90;;;18.70;83.50;;;;;;5076156;28;20468;-73
2021/08/07 02:58:09;;;;;;;1.37;1.10;;;18.60;83.60;;;;;;5076077;28;20484;-74
2021/08/07 03:00:38;;;;;;;2.20;1.30;;;18.60;83.90;;;;;;5076181;28;20433;-73
2021/08/07 03:03:05;;;;;;;3.37;1.43;;;18.50;84.30;;;;;;5075768;28;20855;-74
2021/08/07 03:05:32;;;;;;;1.63;1.50;;;18.60;85.00;;;;;;5076646;28;20469;-74
2021/08/07 03:07:59;;;;;;;3.00;1.30;;;18.60;85.30;;;;;;5075955;28;20451;-74
2021/08/07 03:10:27;;;;;;;1.53;1.43;;;18.70;85.20;;;;;;5075922;28;20474;-73
2021/08/07 03:12:54;;;;;;;5.07;1.20;;;18.70;84.90;;;;;;5075951;28;20445;-74
2021/08/07 03:15:22;;;;;;;1.53;1.43;;;18.70;85.00;;;;;;5075760;28;20510;-74
2021/08/07 03:17:49;;;;;;;2.50;1.50;;;18.80;85.30;;;;;;5075466;28;20543;-73
2021/08/07 03:20:15;;;;;;;1.43;1.33;;;18.80;85.50;;;;;;5075362;28;20491;-74
2021/08/07 03:22:43;;;;;;;2.03;1.43;;;18.80;85.30;;;;;;5075436;28;20468;-74
2021/08/07 03:25:10;;;;;;;2.83;1.50;;;18.80;85.10;;;;;;5075622;28;20464;-73
2021/08/07 03:27:39;;;;;;;3.53;1.63;;;18.90;85.30;;;;;;5074990;28;20498;-74
2021/08/07 03:30:07;;;;;;;1.63;1.20;;;18.90;84.70;;;;;;5075573;28;20440;-74
2021/08/07 03:32:33;;;;;;;3.17;1.70;;;18.80;84.10;;;;;;5075497;28;20451;-74
2021/08/07 03:35:00;;;;;;;4.03;1.20;;;18.80;84.00;;;;;;5075447;28;20469;-74
2021/08/07 03:37:27;;;;;;;2.03;1.50;;;18.80;84.10;;;;;;5075421;28;20475;-74
2021/08/07 03:39:53;;;;;;;2.50;1.37;;;18.80;84.00;;;;;;5075314;28;20480;-74
2021/08/07 03:42:20;;;;;;;4.30;1.57;;;18.70;84.10;;;;;;5074999;28;20934;-74
2021/08/07 03:44:48;;;;;;;1.67;1.57;;;18.70;84.30;;;;;;5075223;28;20467;-74
2021/08/07 03:47:15;;;;;;;3.33;1.30;;;18.70;84.10;;;;;;5074921;28;20826;-74
2021/08/07 03:49:42;;;;;;;2.40;1.50;;;18.70;84.10;;;;;;5075200;28;20440;-73
2021/08/07 03:52:08;;;;;;;2.40;1.73;;;18.70;84.70;;;;;;5075149;28;20441;-74
2021/08/07 03:54:35;;;;;;;2.53;1.70;;;18.70;84.10;;;;;;5075017;28;20465;-74
2021/08/07 03:57:02;;;;;;;2.33;1.50;;;18.60;83.60;;;;;;5075022;28;20813;-74
2021/08/07 03:59:29;;;;;;;2.60;1.77;;;18.50;83.70;;;;;;5074919;28;20476;-74
2021/08/07 04:01:57;;;;;;;4.37;1.77;;;18.50;84.20;;;;;;5074634;28;20935;-74
2021/08/07 04:04:24;;;;;;;2.63;1.60;;;18.50;84.60;;;;;;5074888;28;20460;-74
2021/08/07 04:06:50;;;;;;;2.83;1.70;;;18.40;84.70;;;;;;5074494;28;20445;-74
2021/08/07 04:09:17;;;;;;;4.00;1.40;;;18.40;84.90;;;;;;5074766;28;20452;-74
2021/08/07 04:11:44;;;;;;;2.37;1.47;;;18.30;84.70;;;;;;5074753;28;20440;-74
2021/08/07 04:14:10;;;;;;;2.70;1.70;;;18.30;84.80;;;;;;5074655;28;20441;-74
2021/08/07 04:16:38;;;;;;;4.63;1.67;;;18.30;85.00;;;;;;5074621;28;20813;-74
2021/08/07 04:19:06;;;;;;;4.07;2.23;;;18.30;85.10;;;;;;5074484;28;20478;-74
2021/08/07 04:21:33;;;;;;;3.33;1.93;;;18.30;85.80;;;;;;5074365;28;20440;-74
2021/08/07 04:23:59;;;;;;;3.60;1.83;;;18.20;85.60;;;;;;5074540;28;20428;-74
2021/08/07 04:26:26;;;;;;;3.10;1.67;;;18.20;85.70;;;;;;5074400;28;20460;-74
2021/08/07 04:28:53;;;;;;;1.53;1.17;;;18.20;85.60;;;;;;5074441;28;20440;-74
2021/08/07 04:31:19;;;;;;;2.17;1.40;;;18.20;85.50;;;;;;5074333;28;20436;-74
2021/08/07 04:33:46;;;;;;;2.50;1.87;;;18.20;85.70;;;;;;5074272;28;20443;-74
2021/08/07 04:36:14;;;;;;;5.13;1.60;;;18.20;86.30;;;;;;5074200;28;20456;-74
2021/08/07 04:38:41;;;;;;;3.10;1.57;;;18.30;85.80;;;;;;5073413;28;20476;-74
2021/08/07 04:41:08;;;;;;;4.10;1.90;;;18.20;85.50;;;;;;5074219;28;20452;-74
2021/08/07 04:43:35;;;;;;;3.60;1.90;;;18.20;85.40;;;;;;5074167;28;20444;-74
2021/08/07 04:46:01;;;;;;;6.83;1.37;;;18.20;85.70;;;;;;5073693;28;20903;-74
2021/08/07 04:48:28;;;;;;;3.87;1.90;;;18.20;86.00;;;;;;5074228;28;20445;-74
2021/08/07 04:50:55;;;;;;;2.00;1.73;;;18.20;85.60;;;;;;5074833;28;20444;-74
2021/08/07 04:53:23;;;;;;;3.63;1.70;;;18.10;85.70;;;;;;5073957;28;20809;-74
2021/08/07 04:55:49;;;;;;;2.03;1.57;;;18.10;85.50;;;;;;5073592;28;20885;-74
2021/08/07 04:58:16;;;;;;;3.67;2.00;;;18.10;86.10;;;;;;5073565;28;20939;-74
2021/08/07 05:00:43;;;;;;;3.37;1.37;;;18.10;86.20;;;;;;5073496;28;20854;-74
2021/08/07 05:03:09;;;;;;;2.67;1.40;;;18.10;86.20;;;;;;5073805;28;20440;-75
2021/08/07 05:05:36;;;;;;;1.77;1.47;;;18.10;86.10;;;;;;5073427;28;21175;-73
2021/08/07 05:08:03;;;;;;;3.27;1.57;;;18.20;86.50;;;;;;5073476;28;21049;-74
2021/08/07 05:10:31;;;;;;;6.77;2.20;;;18.20;86.00;;;;;;5073680;28;20495;-73
2021/08/07 05:12:58;;;;;;;5.50;1.83;;;18.20;86.30;;;;;;5073696;28;20518;-73
2021/08/07 05:15:25;;;;;;;2.03;1.47;;;18.20;86.40;;;;;;5073591;28;20456;-73
2021/08/07 05:17:54;;;;;;;3.00;1.57;;;18.20;86.20;;;;;;5073662;28;20444;-73
2021/08/07 05:20:21;;;;;;;1.77;1.30;;;18.20;85.90;;;;;;5073592;28;20584;-73
2021/08/07 05:22:47;;;;;;;3.40;1.63;;;18.10;86.00;;;;;;5073216;28;20513;-73
2021/08/07 05:25:15;;;;;;;4.33;2.23;;;18.20;86.40;;;;;;5073447;28;20465;-73
2021/08/07 05:27:43;;;;;;;1.80;1.57;;;18.20;86.30;;;;;;5073519;28;20449;-73
2021/08/07 05:30:11;;;;;;;6.03;1.87;;;18.10;86.20;;;;;;5073148;28;20947;-73
2021/08/07 05:32:37;;;;;;;3.67;2.00;;;18.20;86.40;;;;;;5073430;28;20441;-73
2021/08/07 05:35:05;;;;;;;2.67;1.73;;;18.10;86.30;;;;;;5073399;28;20869;-73
2021/08/07 05:37:32;;;;;;;4.90;1.63;;;18.20;86.70;;;;;;5073400;28;20449;-73
2021/08/07 05:39:59;;;;;;;5.43;1.50;;;18.20;86.60;;;;;;5073040;28;20477;-73
2021/08/07 05:42:26;;;;;;;2.73;1.30;;;18.30;86.40;;;;;;5073339;28;20524;-73
2021/08/07 05:44:53;;;;;;;4.00;1.70;;;18.30;86.10;;;;;;5073299;28;20460;-74
2021/08/07 05:47:20;;;;;;;3.10;1.67;;;18.40;86.10;;;;;;5073297;28;20444;-73
2021/08/07 05:49:47;;;;;;;3.90;1.50;;;18.40;85.80;;;;;;5074303;28;20441;-73
2021/08/07 05:52:14;;;;;;;4.33;1.37;;;18.40;85.80;;;;;;5077351;28;20440;-73
2021/08/07 05:54:40;;;;;;;3.37;2.00;;;18.50;85.90;;;;;;5077211;28;20525;-73
2021/08/07 05:57:07;;;;;;;3.67;1.80;;;18.50;85.30;;;;;;5077192;28;20448;-73
2021/08/07 05:59:34;;;;;;;2.33;1.63;;;18.60;85.20;;;;;;5077082;28;20476;-74
2021/08/07 06:02:02;;;;;;;3.23;1.60;;;18.60;85.40;;;;;;5077029;28;20445;-73
2021/08/07 06:04:29;;;;;;;2.87;1.90;;;18.60;85.20;;;;;;5076913;28;20464;-74
2021/08/07 06:06:56;;;;;;;5.63;1.97;;;18.70;84.90;;;;;;5077023;28;20444;-73
2021/08/07 06:09:24;;;;;;;3.17;1.70;;;18.80;84.80;;;;;;5076937;28;20447;-73
2021/08/07 06:11:50;;;;;;;2.47;1.57;;;18.80;84.70;;;;;;5076949;28;20451;-73
2021/08/07 06:14:17;;;;;;;2.47;1.83;;;18.80;84.60;;;;;;5076764;28;20436;-74
2021/08/07 06:16:44;;;;;;;2.73;1.80;;;18.90;84.50;;;;;;5076839;28;20445;-73
2021/08/07 06:19:12;;;;;;;2.70;1.63;;;19.00;84.60;;;;;;5076771;28;20444;-75
2021/08/07 06:21:38;;;;;;;4.63;2.07;;;19.10;84.60;;;;;;5076698;28;20449;-73
2021/08/07 06:24:06;;;;;;;2.53;1.37;;;19.20;83.70;;;;;;5076798;28;20827;-73
2021/08/07 06:26:32;;;;;;;4.10;2.10;;;19.30;83.50;;;;;;5076780;28;20471;-73
2021/08/07 06:28:59;;;;;;;6.23;2.50;;;19.40;83.40;;;;;;5076699;28;20444;-73
2021/08/07 06:31:26;;;;;;;2.03;1.77;;;19.50;83.00;;;;;;5076683;28;20448;-73
2021/08/07 06:33:54;;;;;;;2.57;1.60;;;19.60;82.90;;;;;;5076313;28;20444;-73
2021/08/07 06:36:22;;;;;;;3.67;1.60;;;19.60;82.70;;;;;;5076496;28;20469;-73
2021/08/07 06:38:48;;;;;;;5.57;1.73;;;19.60;82.30;;;;;;5076223;28;20452;-73
2021/08/07 06:41:15;;;;;;;3.43;1.97;;;19.60;81.80;;;;;;5076068;28;20480;-73
2021/08/07 06:43:42;;;;;;;3.70;1.67;;;19.60;81.40;;;;;;5076477;28;20843;-73
2021/08/07 06:46:09;;;;;;;10.20;1.73;;;19.70;81.50;;;;;;5076400;28;20465;-73
2021/08/07 06:48:37;;;;;;;5.07;1.90;;;19.70;81.50;;;;;;5077230;28;20834;-73
2021/08/07 06:51:04;;;;;;;6.40;1.47;;;19.80;81.50;;;;;;5076286;28;20437;-73
2021/08/07 06:53:32;;;;;;;8.63;2.40;;;19.80;81.10;;;;;;5076217;28;20444;-74
2021/08/07 06:55:58;;;;;;;4.33;1.40;;;19.70;81.10;;;;;;5076137;28;20522;-73
2021/08/07 06:58:25;;;;;;;3.87;1.60;;;19.70;81.20;;;;;;5076183;28;20444;-73
2021/08/07 07:00:52;;;;;;;3.03;1.67;;;19.70;82.10;;;;;;5075523;28;20475;-73
2021/08/07 07:03:19;;;;;;;2.93;1.80;;;19.80;81.10;;;;;;5075295;28;20963;-73
2021/08/07 07:05:45;;;;;;;1.87;1.50;;;19.80;81.10;;;;;;5075697;28;20978;-73
2021/08/07 07:08:12;;;;;;;3.30;1.37;;;19.90;81.10;;;;;;5076018;28;20448;-73
2021/08/07 07:10:40;;;;;;;3.70;1.77;;;20.00;80.30;;;;;;5075957;28;20441;-73
2021/08/07 07:13:08;;;;;;;4.33;1.87;;;20.00;80.20;;;;;;5075921;28;20444;-73
2021/08/07 07:15:35;;;;;;;6.73;1.90;;;20.10;80.30;;;;;;5075756;28;20461;-73
2021/08/07 07:18:02;;;;;;;3.23;1.83;;;20.20;80.30;;;;;;5075827;28;20444;-74
2021/08/07 07:20:28;;;;;;;3.00;1.47;;;20.20;80.10;;;;;;5075631;28;20484;-73
2021/08/07 07:22:55;;;;;;;3.50;1.50;;;20.30;79.80;;;;;;5075398;28;20456;-73
2021/08/07 07:25:22;;;;;;;4.63;1.73;;;20.40;78.90;;;;;;5075843;28;20490;-73
2021/08/07 07:27:50;;;;;;;4.00;1.60;;;20.50;78.40;;;;;;5075684;28;20440;-73
2021/08/07 07:30:17;;;;;;;2.63;1.90;;;20.60;77.60;;;;;;5075625;28;20494;-73
2021/08/07 07:32:44;;;;;;;4.83;1.57;;;20.70;77.90;;;;;;5075638;28;20448;-74
2021/08/07 07:35:11;;;;;;;5.53;1.50;;;20.80;77.70;;;;;;5075444;28;20460;-74
2021/08/07 07:37:39;;;;;;;4.43;1.70;;;20.90;77.50;;;;;;5075418;28;20441;-72
2021/08/07 07:40:07;;;;;;;2.33;1.83;;;21.10;77.10;;;;;;5076169;28;20480;-73
2021/08/07 07:42:34;;;;;;;5.67;1.63;;;21.20;76.50;;;;;;5075488;28;20452;-75
2021/08/07 07:45:02;;;;;;;1.93;1.10;;;21.30;75.60;;;;;;5075448;28;20490;-73
2021/08/07 07:47:29;;;;;;;2.70;1.47;;;21.30;75.40;;;;;;5075300;28;20453;-74
2021/08/07 07:49:56;;;;;;;2.37;1.30;;;21.30;75.40;;;;;;5075251;28;20436;-73
2021/08/07 07:52:22;;;;;;;4.20;1.43;;;21.50;75.60;;;;;;5074930;28;20449;-73
2021/08/07 07:54:49;;;;;;;2.50;1.40;;;21.70;75.40;;;;;;5074867;28;20843;-73
2021/08/07 07:57:15;;;;;;;2.93;1.70;;;21.90;73.60;;;;;;5075061;28;20452;-73
2021/08/07 07:59:42;;;;;;;3.67;1.60;;;22.30;72.70;;;;;;5074971;28;20490;-73
2021/08/07 08:02:10;;;;;;;2.90;1.30;;;22.70;71.50;;;;;;5074989;28;20469;-75
2021/08/07 08:04:37;;;;;;;1.80;1.10;;;23.00;69.40;;;;;;5074906;28;20644;-73
2021/08/07 08:07:04;;;;;;;2.73;1.40;;;23.30;68.80;;;;;;5074893;28;20444;-74
2021/08/07 08:09:30;;;;;;;3.93;1.30;;;23.50;65.40;;;;;;5074830;28;20456;-75
2021/08/07 08:11:57;;;;;;;2.90;1.60;;;23.70;64.30;;;;;;5074742;28;20490;-73
2021/08/07 08:14:24;;;;;;;6.33;1.80;;;23.90;63.70;;;;;;5074539;28;20441;-73
2021/08/07 08:16:51;;;;;;;4.03;1.50;;;24.10;61.90;;;;;;5074370;28;20460;-73
2021/08/07 08:19:19;;;;;;;6.23;1.53;;;24.20;60.40;;;;;;5074598;28;20449;-73
2021/08/07 08:21:46;;;;;;;2.40;1.47;;;24.20;60.20;;;;;;5074289;28;20493;-74
2021/08/07 08:24:12;;;;;;;7.20;1.93;;;24.20;60.60;;;;;;5074494;28;20433;-73
2021/08/07 08:26:39;;;;;;;4.60;1.77;;;24.20;61.00;;;;;;5074487;28;20452;-73
2021/08/07 08:29:06;;;;;;;5.50;1.53;;;24.30;60.10;;;;;;5074467;28;20453;-73
2021/08/07 08:31:33;;;;;;;5.47;2.03;;;24.30;59.90;;;;;;5074361;28;20441;-73
2021/08/07 08:34:00;;;;;;;7.83;1.97;;;24.30;59.10;;;;;;5074037;28;20820;-74
2021/08/07 08:36:28;;;;;;;4.47;1.40;;;24.20;58.90;;;;;;5074248;28;20472;-74
2021/08/07 08:38:54;;;;;;;3.00;1.40;;;24.20;59.30;;;;;;5074298;28;20486;-74
2021/08/07 08:41:23;;;;;;;3.80;1.40;;;24.10;59.30;;;;;;5074142;28;20506;-74
2021/08/07 08:43:51;;;;;;;3.43;1.20;;;24.10;59.60;;;;;;5074142;28;20498;-74
2021/08/07 08:46:19;;;;;;;3.10;1.37;;;24.30;60.50;;;;;;5074101;28;20472;-74
2021/08/07 08:48:46;;;;;;;4.47;1.50;;;24.40;59.50;;;;;;5074123;28;20455;-74
2021/08/07 08:51:15;;;;;;;4.10;1.40;;;24.50;59.70;;;;;;5074051;28;20467;-74
2021/08/07 08:53:44;;;;;;;3.70;1.20;;;24.70;59.50;;;;;;5074170;28;20445;-74
2021/08/07 08:56:11;;;;;;;5.87;1.20;;;24.80;59.20;;;;;;5073889;28;20468;-74
2021/08/07 08:58:37;;;;;;;3.00;1.10;;;24.80;58.30;;;;;;5074200;28;20453;-74
2021/08/07 09:01:05;;;;;;;4.23;1.60;;;24.90;57.80;;;;;;5073846;28;20484;-74
2021/08/07 09:03:32;;;;;;;3.37;1.43;;;25.00;57.10;;;;;;5073881;28;20445;-73
2021/08/07 09:05:58;;;;;;;2.17;1.40;;;25.00;56.30;;;;;;5073993;28;20468;-75
2021/08/07 09:08:25;;;;;;;3.07;1.43;;;25.10;56.20;;;;;;5073800;28;20459;-74
2021/08/07 09:11:16;;;;;;;2.23;1.20;;;25.10;56.00;;;;;;5073780;28;20444;-73
2021/08/07 09:13:43;;;;;;;3.43;1.47;;;25.20;55.50;;;;;;5073764;28;20490;-73
2021/08/07 09:16:11;;;;;;;1.93;1.20;;;25.20;56.00;;;;;;5073617;28;20460;-73
2021/08/07 09:18:38;;;;;;;4.57;1.50;;;25.30;55.70;;;;;;5073640;28;20483;-74
2021/08/07 09:21:13;;;;;;;5.83;1.73;;;25.40;56.30;;;;;;5073530;28;20487;-73
2021/08/07 09:23:40;;;;;;;2.40;1.50;;;25.60;55.60;;;;;;5073313;28;20456;-75
2021/08/07 09:26:20;;;;;;;5.17;1.93;;;25.70;54.50;;;;;;5073040;28;20461;-73
2021/08/07 09:28:50;;;;;;;4.37;1.47;;;25.80;54.10;;;;;;5073559;28;20433;-75
2021/08/07 09:31:17;;;;;;;4.00;1.30;;;25.90;54.80;;;;;;5074424;28;20441;-74
2021/08/07 09:33:43;;;;;;;3.10;1.53;;;26.10;53.10;;;;;;5073521;28;20452;-75
2021/08/07 09:36:10;;;;;;;4.63;1.70;;;26.20;52.60;;;;;;5073462;28;20460;-73
2021/08/07 09:38:45;;;;;;;2.50;1.33;;;26.30;52.70;;;;;;5073594;28;20807;-75
2021/08/07 09:41:13;;;;;;;4.37;1.30;;;26.30;52.50;;;;;;5073429;28;20460;-74
2021/08/07 09:43:46;;;;;;;3.40;1.57;;;26.40;53.20;;;;;;5073099;28;20452;-74
2021/08/07 09:46:15;;;;;;;3.90;1.47;;;26.50;53.00;;;;;;5073306;28;20465;-73
2021/08/07 09:48:43;;;;;;;2.50;1.33;;;26.50;50.70;;;;;;5073137;28;20440;-75
2021/08/07 09:51:22;;;;;;;2.93;1.30;;;26.50;50.90;;;;;;5073316;28;20440;-74
2021/08/07 09:54:07;;;;;;;3.67;1.67;;;26.60;50.90;;;;;;5073325;28;20437;-73
2021/08/07 09:56:45;;;;;;;6.17;1.40;;;26.80;51.80;;;;;;5072988;28;20926;-73
2021/08/07 09:59:14;;;;;;;7.47;1.97;;;26.90;49.70;;;;;;5073282;28;20498;-74
2021/08/07 10:01:40;;;;;;;4.10;1.40;;;27.00;48.60;;;;;;5073265;28;20535;-74
2021/08/07 10:04:10;;;;;;;2.90;1.17;;;27.10;49.40;;;;;;5073092;28;20471;-74
2021/08/07 10:06:37;;;;;;;1.57;1.03;;;27.10;47.80;;;;;;5073543;28;20494;-75
2021/08/07 10:09:05;;;;;;;3.87;1.00;;;27.30;48.00;;;;;;5073123;28;20448;-75
2021/08/07 10:11:32;;;;;;;4.30;1.47;;;27.70;47.60;;;;;;5073151;28;20513;-75
2021/08/07 10:14:00;;;;;;;3.43;1.40;;;28.00;47.70;;;;;;5073041;28;20795;-75
2021/08/07 10:16:30;;;;;;;4.47;1.20;;;28.10;45.90;;;;;;5072796;28;20469;-74
2021/08/07 10:18:58;;;;;;;4.70;1.50;;;28.20;46.60;;;;;;5073053;28;20440;-75
2021/08/07 10:21:25;;;;;;;2.90;1.50;;;28.50;46.20;;;;;;5073048;28;20479;-75
2021/08/07 10:23:54;;;;;;;6.30;1.40;;;28.90;43.60;;;;;;5073052;28;20440;-75
2021/08/07 10:26:23;;;;;;;3.50;1.40;;;29.00;43.50;;;;;;5072952;28;20464;-75
2021/08/07 10:28:54;;;;;;;3.40;1.63;;;29.20;43.70;;;;;;5072953;28;20450;-75
2021/08/07 10:31:23;;;;;;;2.80;1.20;;;29.20;43.20;;;;;;5072991;28;20452;-75
2021/08/07 10:33:54;;;;;;;6.77;1.73;;;29.40;43.30;;;;;;5072985;28;20425;-75
2021/08/07 10:36:22;;;;;;;3.17;1.10;;;29.60;42.40;;;;;;5073119;28;20460;-75
2021/08/07 10:38:51;;;;;;;2.40;1.40;;;29.50;42.50;;;;;;5076610;28;20476;-75
2021/08/07 10:41:18;;;;;;;3.07;1.20;;;29.30;41.80;;;;;;5076749;28;20570;-74
2021/08/07 10:43:51;;;;;;;3.80;1.63;;;29.10;42.10;;;;;;5076471;28;20444;-73
2021/08/07 10:46:18;;;;;;;5.90;1.67;;;28.80;42.20;;;;;;5076392;28;20471;-75
2021/08/07 10:48:46;;;;;;;2.53;1.30;;;28.50;42.80;;;;;;5076100;28;20444;-75
2021/08/07 10:51:43;;;;;;;3.07;1.20;;;28.10;43.00;;;;;;5076034;28;20943;-75
2021/08/07 10:54:32;;;;;;;3.40;1.50;;;27.70;44.30;;;;;;5076284;28;20436;-74
2021/08/07 10:56:59;;;;;;;7.60;1.60;;;27.50;44.50;;;;;;5076246;28;20428;-74
2021/08/07 10:59:27;;;;;;;3.63;1.00;;;27.40;44.50;;;;;;5076190;28;20453;-74
2021/08/07 11:01:55;;;;;;;4.40;1.33;;;27.40;45.10;;;;;;5076113;28;20876;-75
2021/08/07 11:04:26;;;;;;;1.50;1.07;;;27.20;44.80;;;;;;5076035;28;20444;-75
2021/08/07 11:07:03;;;;;;;1.83;1.00;;;27.20;45.90;;;;;;5076325;28;20436;-75
2021/08/07 11:09:33;;;;;;;4.17;1.00;;;27.20;46.20;;;;;;5076025;28;20425;-75
2021/08/07 11:12:19;;;;;;;3.20;1.10;;;27.10;45.50;;;;;;5075952;28;20445;-75
2021/08/07 11:14:48;;;;;;;3.23;1.10;;;27.00;45.80;;;;;;5075889;28;20465;-75
2021/08/07 11:17:35;;;;;;;2.40;0.93;;;27.00;45.00;;;;;;5075533;28;20861;-74
2021/08/07 11:20:05;;;;;;;3.20;1.07;;;27.30;45.40;;;;;;5075819;28;20444;-73
2021/08/07 11:23:09;;;;;;;3.57;1.17;;;27.50;43.50;;;;;;5075588;28;20484;-74
2021/08/07 11:26:01;;;;;;;3.17;1.23;;;27.90;43.20;;;;;;5075713;28;20498;-73
2021/08/07 11:28:29;;;;;;;3.37;1.17;;;28.80;41.90;;;;;;5075731;28;20429;-74
2021/08/07 11:31:13;;;;;;;2.50;1.20;;;29.90;39.00;;;;;;5075646;28;20441;-74
2021/08/07 11:33:40;;;;;;;1.67;0.83;;;31.30;38.00;;;;;;5075546;28;20440;-74
2021/08/07 11:36:10;;;;;;;5.53;1.40;;;32.60;35.60;;;;;;5075402;28;20456;-74
2021/08/07 11:38:59;;;;;;;2.20;1.20;;;33.20;33.40;;;;;;5075434;28;20433;-74
2021/08/07 11:41:48;;;;;;;1.83;1.10;;;33.70;33.10;;;;;;5075365;28;21041;-74
2021/08/07 11:44:15;;;;;;;2.47;1.13;;;33.60;31.50;;;;;;5070421;28;20443;-74
2021/08/07 11:46:42;;;;;;;4.10;1.20;;;33.20;32.80;;;;;;5075312;28;20436;-74
2021/08/07 11:49:09;;;;;;;3.87;1.00;;;33.40;33.00;;;;;;5074442;28;20447;-74
2021/08/07 11:51:37;;;;;;;3.03;1.30;;;33.70;31.10;;;;;;5077615;28;20498;-76
2021/08/07 11:54:06;;;;;;;2.43;1.27;;;33.60;32.00;;;;;;5085229;28;20488;-76
2021/08/07 11:56:37;;;;;;;4.10;1.03;;;33.20;31.70;;;;;;5080549;28;20855;-76
2021/08/07 11:59:06;;;;;;;4.33;1.20;;;32.80;33.00;;;;;;5075123;28;20437;-76
2021/08/07 12:01:35;;;;;;;3.00;1.10;;;32.40;33.40;;;;;;5074958;28;20483;-76
2021/08/07 12:04:02;;;;;;;2.87;1.50;;;32.20;33.80;;;;;;5074677;28;20959;-76
2021/08/07 12:06:31;;;;;;;3.27;1.03;;;32.20;34.00;;;;;;5074838;28;20503;-75
2021/08/07 12:08:59;;;;;;;3.60;1.00;;;32.40;35.60;;;;;;5074876;28;20451;-76
2021/08/07 12:11:26;;;;;;;1.53;0.87;;;32.60;33.20;;;;;;5074787;28;20448;-76
2021/08/07 12:13:54;;;;;;;1.87;0.90;;;33.40;32.00;;;;;;5074807;28;20440;-76
2021/08/07 12:16:27;;;;;;;2.80;1.07;;;34.60;29.90;;;;;;5074612;28;20464;-76
2021/08/07 12:18:55;;;;;;;2.80;1.00;;;34.80;29.00;;;;;;5074699;28;20450;-76
2021/08/07 12:21:34;;;;;;;2.00;0.87;;;34.70;29.80;;;;;;5074506;28;20475;-76
2021/08/07 12:24:04;;;;;;;2.17;0.90;;;35.10;28.80;;;;;;5074588;28;20427;-76
2021/08/07 12:26:33;;;;;;;2.57;1.10;;;35.90;28.10;;;;;;5074471;28;20460;-76
2021/08/07 12:29:02;;;;;;;2.33;0.80;;;36.30;26.90;;;;;;5074444;28;20501;-76
2021/08/07 12:31:44;;;;;;;1.07;0.63;;;36.40;25.90;;;;;;5074408;28;20447;-76
2021/08/07 12:34:13;;;;;;;2.97;0.90;;;36.60;26.20;;;;;;5074061;28;20902;-76
2021/08/07 12:36:40;;;;;;;1.93;0.97;;;37.10;26.00;;;;;;5074594;28;20505;-77
2021/08/07 12:39:07;;;;;;;2.70;1.10;;;37.70;24.80;;;;;;5074302;28;20571;-76
2021/08/07 12:41:34;;;;;;;1.77;0.80;;;38.20;23.70;;;;;;5074207;28;20222;-76
2021/08/07 12:44:00;;;;;;;1.58;0.80;;;38.80;23.50;;;;;;5074172;28;20206;-76
2021/08/07 12:46:27;;;;;;;2.05;0.90;;;39.50;22.40;;;;;;5073771;28;20230;-76
2021/08/07 12:48:59;;;;;;;2.50;1.00;;;39.80;22.10;;;;;;5074113;28;20259;-76
2021/08/07 12:51:30;;;;;;;1.58;0.90;;;39.80;21.60;;;;;;5074121;28;20186;-76
2021/08/07 12:53:59;;;;;;;1.85;1.20;;;40.10;22.00;;;;;;5074156;28;20190;-76
2021/08/07 12:56:29;;;;;;;2.25;1.02;;;40.10;21.50;;;;;;5073990;28;20228;-77